sensor_id;sensor_type;location;lat;lon;timestamp;pressure;altitude;pressure_sealevel;temperature;humidity
49825;BME280;35714;55.708;37.478;2023-10-19T00:00:46;98406.22;;;6.71;69.25
49825;BME280;35714;55.708;37.478;2023-10-19T00:03:16;98406.09;;;6.66;69.23
49825;BME280;35714;55.708;37.478;2023-10-19T00:05:43;98406.09;;;6.66;69.51
49825;BME280;35714;55.708;37.478;2023-10-19T00:08:10;98409.38;;;6.68;69.50
49825;BME280;35714;55.708;37.478;2023-10-19T00:10:39;98409.38;;;6.68;69.56
49825;BME280;35714;55.708;37.478;2023-10-19T00:13:08;98414.28;;;6.71;69.57
49825;BME280;35714;55.708;37.478;2023-10-19T00:15:34;98413.25;;;6.72;69.54
49825;BME280;35714;55.708;37.478;2023-10-19T00:18:05;98411.72;;;6.76;69.42
49825;BME280;35714;55.708;37.478;2023-10-19T00:20:43;98412.78;;;6.75;69.18
49825;BME280;35714;55.708;37.478;2023-10-19T00:23:19;98402.00;;;6.75;69.42
49825;BME280;35714;55.708;37.478;2023-10-19T00:25:57;98405.41;;;6.82;69.06
49825;BME280;35714;55.708;37.478;2023-10-19T00:28:22;98394.25;;;6.79;68.96
49825;BME280;35714;55.708;37.478;2023-10-19T00:30:50;98405.03;;;6.79;68.92
49825;BME280;35714;55.708;37.478;2023-10-19T00:33:18;98395.56;;;6.76;69.00
49825;BME280;35714;55.708;37.478;2023-10-19T00:35:46;98397.19;;;6.77;69.15
49825;BME280;35714;55.708;37.478;2023-10-19T00:38:43;98400.50;;;6.79;69.17
49825;BME280;35714;55.708;37.478;2023-10-19T00:41:15;98396.38;;;6.77;69.04
49825;BME280;35714;55.708;37.478;2023-10-19T00:43:57;98404.22;;;6.78;69.10
49825;BME280;35714;55.708;37.478;2023-10-19T00:46:32;98398.84;;;6.78;69.16
49825;BME280;35714;55.708;37.478;2023-10-19T00:49:03;98404.22;;;6.78;69.10
49825;BME280;35714;55.708;37.478;2023-10-19T00:51:33;98406.44;;;6.81;69.35
49825;BME280;35714;55.708;37.478;2023-10-19T00:56:30;98401.53;;;6.90;69.07
49825;BME280;35714;55.708;37.478;2023-10-19T00:58:57;98408.31;;;6.93;69.00
49825;BME280;35714;55.708;37.478;2023-10-19T01:01:38;98411.00;;;6.93;68.86
49825;BME280;35714;55.708;37.478;2023-10-19T01:04:09;98407.72;;;6.91;68.81
49825;BME280;35714;55.708;37.478;2023-10-19T01:06:39;98406.09;;;6.90;68.68
49825;BME280;35714;55.708;37.478;2023-10-19T01:09:07;98403.88;;;6.86;68.62
49825;BME280;35714;55.708;37.478;2023-10-19T01:11:33;98405.19;;;6.84;68.91
49825;BME280;35714;55.708;37.478;2023-10-19T01:14:00;98392.97;;;6.81;68.71
49825;BME280;35714;55.708;37.478;2023-10-19T01:16:42;98400.50;;;6.79;68.83
49825;BME280;35714;55.708;37.478;2023-10-19T01:19:11;98400.13;;;6.76;68.71
49825;BME280;35714;55.708;37.478;2023-10-19T01:21:36;98397.66;;;6.74;68.77
49825;BME280;35714;55.708;37.478;2023-10-19T01:24:12;98399.31;;;6.75;68.92
49825;BME280;35714;55.708;37.478;2023-10-19T01:26:38;98396.50;;;6.70;68.88
49825;BME280;35714;55.708;37.478;2023-10-19T01:29:03;98392.75;;;6.71;69.04
49825;BME280;35714;55.708;37.478;2023-10-19T01:31:39;98402.56;;;6.77;69.05
49825;BME280;35714;55.708;37.478;2023-10-19T01:34:17;98400.97;;;6.76;68.68
49825;BME280;35714;55.708;37.478;2023-10-19T01:36:45;98388.53;;;6.75;68.76
49825;BME280;35714;55.708;37.478;2023-10-19T01:39:15;98397.66;;;6.74;68.91
49825;BME280;35714;55.708;37.478;2023-10-19T01:41:40;98399.31;;;6.75;69.01
49825;BME280;35714;55.708;37.478;2023-10-19T01:44:06;98400.13;;;6.76;68.76
49825;BME280;35714;55.708;37.478;2023-10-19T01:46:32;98395.56;;;6.76;69.05
49825;BME280;35714;55.708;37.478;2023-10-19T01:49:02;98396.16;;;6.78;69.11
49825;BME280;35714;55.708;37.478;2023-10-19T01:51:29;98396.72;;;6.80;68.70
49825;BME280;35714;55.708;37.478;2023-10-19T01:53:56;98391.00;;;6.77;68.80
49825;BME280;35714;55.708;37.478;2023-10-19T01:56:22;98392.28;;;6.74;68.64
49825;BME280;35714;55.708;37.478;2023-10-19T01:58:48;98392.88;;;6.76;68.86
49825;BME280;35714;55.708;37.478;2023-10-19T02:01:15;98394.16;;;6.85;68.67
49825;BME280;35714;55.708;37.478;2023-10-19T02:03:53;98388.63;;;6.80;68.75
49825;BME280;35714;55.708;37.478;2023-10-19T02:06:39;98392.50;;;6.84;68.62
49825;BME280;35714;55.708;37.478;2023-10-19T02:09:12;98394.63;;;6.82;68.53
49825;BME280;35714;55.708;37.478;2023-10-19T02:11:54;98397.19;;;6.77;68.44
49825;BME280;35714;55.708;37.478;2023-10-19T02:14:21;98391.22;;;6.75;68.52
49825;BME280;35714;55.708;37.478;2023-10-19T02:16:52;98383.63;;;6.72;68.61
49825;BME280;35714;55.708;37.478;2023-10-19T02:19:19;98390.75;;;6.78;68.71
49825;BME280;35714;55.708;37.478;2023-10-19T02:21:48;98398.84;;;6.78;68.70
49825;BME280;35714;55.708;37.478;2023-10-19T02:24:13;98393.78;;;6.82;68.58
49825;BME280;35714;55.708;37.478;2023-10-19T02:26:40;98393.31;;;6.85;68.57
49825;BME280;35714;55.708;37.478;2023-10-19T02:29:06;98389.25;;;6.82;68.41
49825;BME280;35714;55.708;37.478;2023-10-19T02:31:35;98366.28;;;6.68;68.39
49825;BME280;35714;55.708;37.478;2023-10-19T02:34:03;98384.31;;;6.79;68.50
49825;BME280;35714;55.708;37.478;2023-10-19T02:36:31;98387.03;;;6.79;68.58
49825;BME280;35714;55.708;37.478;2023-10-19T02:39:01;98392.97;;;6.81;68.79
49825;BME280;35714;55.708;37.478;2023-10-19T02:41:34;98389.81;;;6.84;68.52
49825;BME280;35714;55.708;37.478;2023-10-19T02:44:01;98393.78;;;6.82;68.26
49825;BME280;35714;55.708;37.478;2023-10-19T02:46:30;98393.44;;;6.78;68.45
49825;BME280;35714;55.708;37.478;2023-10-19T02:49:03;98398.84;;;6.78;68.45
49825;BME280;35714;55.708;37.478;2023-10-19T02:51:30;98389.47;;;6.81;68.59
49825;BME280;35714;55.708;37.478;2023-10-19T02:53:56;98392.97;;;6.81;68.56
49825;BME280;35714;55.708;37.478;2023-10-19T02:56:23;98398.38;;;6.81;68.47
49825;BME280;35714;55.708;37.478;2023-10-19T02:58:52;98397.09;;;6.84;68.43
49825;BME280;35714;55.708;37.478;2023-10-19T03:01:19;98392.75;;;6.83;68.24
49825;BME280;35714;55.708;37.478;2023-10-19T03:03:50;98382.69;;;6.78;68.35
49825;BME280;35714;55.708;37.478;2023-10-19T03:06:20;98381.03;;;6.77;68.48
49825;BME280;35714;55.708;37.478;2023-10-19T03:08:46;98378.56;;;6.76;68.38
49825;BME280;35714;55.708;37.478;2023-10-19T03:11:12;98394.88;;;6.69;68.37
49825;BME280;35714;55.708;37.478;2023-10-19T03:13:39;98384.66;;;6.71;68.52
49825;BME280;35714;55.708;37.478;2023-10-19T03:16:09;98388.66;;;6.68;68.54
49825;BME280;35714;55.708;37.478;2023-10-19T03:18:35;98387.00;;;6.67;68.57
49825;BME280;35714;55.708;37.478;2023-10-19T03:21:02;98391.13;;;6.70;68.69
49825;BME280;35714;55.708;37.478;2023-10-19T03:23:27;98391.13;;;6.70;68.58
49825;BME280;35714;55.708;37.478;2023-10-19T03:25:54;98390.66;;;6.73;68.42
49825;BME280;35714;55.708;37.478;2023-10-19T03:28:38;98398.13;;;6.71;68.58
49825;BME280;35714;55.708;37.478;2023-10-19T03:31:06;98387.34;;;6.71;68.51
49825;BME280;35714;55.708;37.478;2023-10-19T03:33:32;98381.97;;;6.71;68.39
49825;BME280;35714;55.708;37.478;2023-10-19T03:36:01;98387.34;;;6.71;68.54
49825;BME280;35714;55.708;37.478;2023-10-19T03:38:27;98389.81;;;6.73;68.35
49825;BME280;35714;55.708;37.478;2023-10-19T03:40:57;98381.97;;;6.71;68.42
49825;BME280;35714;55.708;37.478;2023-10-19T03:43:31;98388.53;;;6.75;68.12
49825;BME280;35714;55.708;37.478;2023-10-19T03:45:58;98384.91;;;6.69;68.19
49825;BME280;35714;55.708;37.478;2023-10-19T03:48:24;98389.94;;;6.66;68.47
49825;BME280;35714;55.708;37.478;2023-10-19T03:50:52;98391.59;;;6.67;68.63
49825;BME280;35714;55.708;37.478;2023-10-19T03:53:19;98390.28;;;6.69;68.36
49825;BME280;35714;55.708;37.478;2023-10-19T03:55:46;98391.13;;;6.70;68.36
49825;BME280;35714;55.708;37.478;2023-10-19T03:58:13;98389.00;;;6.72;68.35
49825;BME280;35714;55.708;37.478;2023-10-19T04:00:39;98398.13;;;6.71;68.27
49825;BME280;35714;55.708;37.478;2023-10-19T04:03:04;98397.66;;;6.74;68.32
49825;BME280;35714;55.708;37.478;2023-10-19T04:05:30;98395.56;;;6.76;68.31
49825;BME280;35714;55.708;37.478;2023-10-19T04:07:56;98400.50;;;6.79;68.20
49825;BME280;35714;55.708;37.478;2023-10-19T04:10:26;98396.50;;;6.82;68.20
49825;BME280;35714;55.708;37.478;2023-10-19T04:13:00;98400.03;;;6.82;68.24
49825;BME280;35714;55.708;37.478;2023-10-19T04:15:27;98396.38;;;6.89;68.11
49825;BME280;35714;55.708;37.478;2023-10-19T04:17:54;98399.06;;;6.89;67.98
49825;BME280;35714;55.708;37.478;2023-10-19T04:20:21;98396.38;;;6.89;67.91
49825;BME280;35714;55.708;37.478;2023-10-19T04:22:50;98395.91;;;6.92;67.97
49825;BME280;35714;55.708;37.478;2023-10-19T04:25:16;98397.28;;;6.94;67.82
49825;BME280;35714;55.708;37.478;2023-10-19T04:27:44;98393.56;;;6.95;67.75
49825;BME280;35714;55.708;37.478;2023-10-19T04:30:09;98395.66;;;6.93;67.64
49825;BME280;35714;55.708;37.478;2023-10-19T04:32:41;98405.63;;;6.93;67.82
49825;BME280;35714;55.708;37.478;2023-10-19T04:35:06;98399.75;;;6.96;67.84
49825;BME280;35714;55.708;37.478;2023-10-19T04:37:34;98401.03;;;7.05;67.72
49825;BME280;35714;55.708;37.478;2023-10-19T04:40:00;98403.25;;;7.08;67.47
49825;BME280;35714;55.708;37.478;2023-10-19T04:42:26;98402.69;;;7.06;67.41
49825;BME280;35714;55.708;37.478;2023-10-19T04:44:53;98406.41;;;7.05;67.57
49825;BME280;35714;55.708;37.478;2023-10-19T04:47:19;98407.00;;;7.07;67.79
49825;BME280;35714;55.708;37.478;2023-10-19T04:49:44;98405.94;;;7.08;67.55
49825;BME280;35714;55.708;37.478;2023-10-19T04:52:10;98402.78;;;7.11;67.50
49825;BME280;35714;55.708;37.478;2023-10-19T04:54:35;98407.22;;;7.17;67.53
49825;BME280;35714;55.708;37.478;2023-10-19T04:57:02;98410.50;;;7.19;67.42
49825;BME280;35714;55.708;37.478;2023-10-19T04:59:28;98399.72;;;7.19;67.49
49825;BME280;35714;55.708;37.478;2023-10-19T05:01:58;98403.56;;;7.23;67.36
49825;BME280;35714;55.708;37.478;2023-10-19T05:04:27;98405.19;;;7.25;67.31
49825;BME280;35714;55.708;37.478;2023-10-19T05:06:52;98406.59;;;7.27;67.38
49825;BME280;35714;55.708;37.478;2023-10-19T05:09:18;98399.44;;;7.33;67.26
49825;BME280;35714;55.708;37.478;2023-10-19T05:11:43;98408.91;;;7.35;67.17
49825;BME280;35714;55.708;37.478;2023-10-19T05:14:11;98403.91;;;7.39;67.01
49825;BME280;35714;55.708;37.478;2023-10-19T05:16:39;98403.28;;;7.37;67.04
49825;BME280;35714;55.708;37.478;2023-10-19T05:19:05;98398.97;;;7.36;66.92
49825;BME280;35714;55.708;37.478;2023-10-19T05:21:30;98408.69;;;7.37;66.90
49825;BME280;35714;55.708;37.478;2023-10-19T05:23:56;98406.47;;;7.34;66.90
49825;BME280;35714;55.708;37.478;2023-10-19T05:26:21;98406.47;;;7.34;67.05
49825;BME280;35714;55.708;37.478;2023-10-19T05:28:47;98413.50;;;7.35;67.19
49825;BME280;35714;55.708;37.478;2023-10-19T05:31:13;98410.44;;;7.43;66.93
49825;BME280;35714;55.708;37.478;2023-10-19T05:33:40;98410.28;;;7.50;66.87
49825;BME280;35714;55.708;37.478;2023-10-19T05:36:05;98420.47;;;7.59;66.74
49825;BME280;35714;55.708;37.478;2023-10-19T05:38:31;98418.34;;;7.62;66.12
49825;BME280;35714;55.708;37.478;2023-10-19T05:40:57;98414.47;;;7.57;66.20
49825;BME280;35714;55.708;37.478;2023-10-19T05:43:27;98417.66;;;7.54;66.21
49825;BME280;35714;55.708;37.478;2023-10-19T05:45:53;98413.91;;;7.55;66.47
49825;BME280;35714;55.708;37.478;2023-10-19T05:48:19;98417.28;;;7.63;66.49
49825;BME280;35714;55.708;37.478;2023-10-19T05:50:45;98422.78;;;7.68;66.17
49825;BME280;35714;55.708;37.478;2023-10-19T05:53:10;98416.56;;;7.67;66.27
49825;BME280;35714;55.708;37.478;2023-10-19T05:55:36;98429.91;;;7.74;66.26
49825;BME280;35714;55.708;37.478;2023-10-19T05:58:04;98421.00;;;7.73;66.14
49825;BME280;35714;55.708;37.478;2023-10-19T06:00:30;98424.59;;;7.79;66.27
49825;BME280;35714;55.708;37.478;2023-10-19T06:02:55;98428.06;;;7.91;66.32
49825;BME280;35714;55.708;37.478;2023-10-19T06:05:21;98423.69;;;8.02;66.39
49825;BME280;35714;55.708;37.478;2023-10-19T06:07:47;98430.41;;;8.17;66.09
49825;BME280;35714;55.708;37.478;2023-10-19T06:10:13;98419.78;;;8.27;66.25
49825;BME280;35714;55.708;37.478;2023-10-19T06:12:47;98423.19;;;8.39;65.91
49825;BME280;35714;55.708;37.478;2023-10-19T06:15:13;98426.38;;;8.48;65.45
49825;BME280;35714;55.708;37.478;2023-10-19T06:17:39;98416.22;;;8.55;65.56
49825;BME280;35714;55.708;37.478;2023-10-19T06:20:05;98422.06;;;8.69;64.75
49825;BME280;35714;55.708;37.478;2023-10-19T06:22:32;98417.75;;;8.68;64.02
49825;BME280;35714;55.708;37.478;2023-10-19T06:24:58;98427.16;;;8.65;64.33
49825;BME280;35714;55.708;37.478;2023-10-19T06:27:23;98421.34;;;8.74;63.72
49825;BME280;35714;55.708;37.478;2023-10-19T06:29:49;98430.78;;;8.71;63.88
49825;BME280;35714;55.708;37.478;2023-10-19T06:32:14;98424.88;;;8.74;64.27
49825;BME280;35714;55.708;37.478;2023-10-19T06:34:40;98429.59;;;8.84;63.88
49825;BME280;35714;55.708;37.478;2023-10-19T06:37:06;98423.53;;;8.94;63.89
49825;BME280;35714;55.708;37.478;2023-10-19T06:39:33;98424.56;;;9.10;63.92
49825;BME280;35714;55.708;37.478;2023-10-19T06:41:59;98424.25;;;9.28;63.49
49825;BME280;35714;55.708;37.478;2023-10-19T06:44:24;98425.75;;;9.41;62.20
49825;BME280;35714;55.708;37.478;2023-10-19T06:46:50;98429.59;;;9.45;62.26
49825;BME280;35714;55.708;37.478;2023-10-19T06:49:16;98430.47;;;9.51;62.02
49825;BME280;35714;55.708;37.478;2023-10-19T06:51:42;98417.56;;;9.58;61.01
49825;BME280;35714;55.708;37.478;2023-10-19T06:54:08;98425.44;;;9.60;60.90
49825;BME280;35714;55.708;37.478;2023-10-19T06:56:33;98424.13;;;9.62;60.22
49825;BME280;35714;55.708;37.478;2023-10-19T06:59:02;98427.91;;;9.61;59.39
49825;BME280;35714;55.708;37.478;2023-10-19T07:01:30;98425.19;;;9.61;59.08
49825;BME280;35714;55.708;37.478;2023-10-19T07:03:57;98432.16;;;9.57;59.61
49825;BME280;35714;55.708;37.478;2023-10-19T07:06:23;98434.38;;;9.60;59.78
49825;BME280;35714;55.708;37.478;2023-10-19T07:08:49;98430.09;;;9.64;59.33
49825;BME280;35714;55.708;37.478;2023-10-19T07:11:15;98431.16;;;9.63;59.46
49825;BME280;35714;55.708;37.478;2023-10-19T07:13:40;98432.00;;;9.64;59.25
49825;BME280;35714;55.708;37.478;2023-10-19T07:16:06;98437.97;;;9.66;59.19
49825;BME280;35714;55.708;37.478;2023-10-19T07:18:34;98438.28;;;9.69;59.07
49825;BME280;35714;55.708;37.478;2023-10-19T07:20:59;98433.41;;;9.71;58.38
49825;BME280;35714;55.708;37.478;2023-10-19T07:23:28;98440.97;;;9.69;58.06
49825;BME280;35714;55.708;37.478;2023-10-19T07:25:54;98439.53;;;9.62;58.27
49825;BME280;35714;55.708;37.478;2023-10-19T07:28:21;98441.38;;;9.56;58.45
49825;BME280;35714;55.708;37.478;2023-10-19T07:30:47;98444.25;;;9.49;58.74
49825;BME280;35714;55.708;37.478;2023-10-19T07:33:14;98442.00;;;9.41;58.45
49825;BME280;35714;55.708;37.478;2023-10-19T07:35:42;98444.66;;;9.36;58.62
49825;BME280;35714;55.708;37.478;2023-10-19T07:38:09;98446.53;;;9.35;58.62
49825;BME280;35714;55.708;37.478;2023-10-19T07:40:35;98447.03;;;9.32;58.21
49825;BME280;35714;55.708;37.478;2023-10-19T07:43:00;98442.53;;;9.21;58.65
49825;BME280;35714;55.708;37.478;2023-10-19T07:45:26;98452.19;;;9.12;58.98
49825;BME280;35714;55.708;37.478;2023-10-19T07:47:52;98453.25;;;9.11;59.33
49825;BME280;35714;55.708;37.478;2023-10-19T07:50:17;98457.06;;;9.15;58.58
49825;BME280;35714;55.708;37.478;2023-10-19T07:52:46;98452.84;;;9.02;58.96
49825;BME280;35714;55.708;37.478;2023-10-19T07:55:13;98452.78;;;8.97;58.87
49825;BME280;35714;55.708;37.478;2023-10-19T07:57:39;98456.66;;;8.84;59.57
49825;BME280;35714;55.708;37.478;2023-10-19T08:00:06;98457.13;;;8.81;60.08
49825;BME280;35714;55.708;37.478;2023-10-19T08:02:34;98459.84;;;8.81;60.11
49825;BME280;35714;55.708;37.478;2023-10-19T08:05:00;98455.97;;;8.77;60.33
49825;BME280;35714;55.708;37.478;2023-10-19T08:07:29;98453.03;;;8.78;60.63
49825;BME280;35714;55.708;37.478;2023-10-19T08:09:55;98455.47;;;8.80;60.49
49825;BME280;35714;55.708;37.478;2023-10-19T08:12:23;98456.06;;;8.82;60.73
49825;BME280;35714;55.708;37.478;2023-10-19T08:14:49;98453.69;;;8.85;60.95
49825;BME280;35714;55.708;37.478;2023-10-19T08:17:15;98461.06;;;8.90;60.89
49825;BME280;35714;55.708;37.478;2023-10-19T08:19:40;98457.28;;;8.91;61.02
49825;BME280;35714;55.708;37.478;2023-10-19T08:22:06;98458.19;;;8.97;61.24
49825;BME280;35714;55.708;37.478;2023-10-19T08:24:32;98464.25;;;9.04;61.27
49825;BME280;35714;55.708;37.478;2023-10-19T08:27:00;98467.38;;;9.18;61.60
49825;BME280;35714;55.708;37.478;2023-10-19T08:29:26;98468.19;;;9.35;61.21
49825;BME280;35714;55.708;37.478;2023-10-19T08:31:51;98463.38;;;9.43;60.77
49825;BME280;35714;55.708;37.478;2023-10-19T08:34:17;98468.94;;;9.53;60.93
49825;BME280;35714;55.708;37.478;2023-10-19T08:36:42;98465.59;;;9.68;61.13
49825;BME280;35714;55.708;37.478;2023-10-19T08:39:08;98466.03;;;9.82;60.74
49825;BME280;35714;55.708;37.478;2023-10-19T08:41:34;98474.19;;;9.87;60.45
49825;BME280;35714;55.708;37.478;2023-10-19T08:44:01;98473.09;;;9.83;60.30
49825;BME280;35714;55.708;37.478;2023-10-19T08:46:27;98468.19;;;9.80;60.63
49825;BME280;35714;55.708;37.478;2023-10-19T08:48:54;98470.94;;;9.85;60.70
49825;BME280;35714;55.708;37.478;2023-10-19T08:51:20;98474.69;;;9.84;60.54
49825;BME280;35714;55.708;37.478;2023-10-19T08:53:46;98476.22;;;9.74;60.41
49825;BME280;35714;55.708;37.478;2023-10-19T08:56:11;98478.50;;;9.61;60.39
49825;BME280;35714;55.708;37.478;2023-10-19T08:58:37;98476.16;;;9.47;60.35
49825;BME280;35714;55.708;37.478;2023-10-19T09:01:03;98480.00;;;9.29;60.82
49825;BME280;35714;55.708;37.478;2023-10-19T09:03:35;98480.91;;;9.18;61.05
49825;BME280;35714;55.708;37.478;2023-10-19T09:06:01;98480.34;;;9.16;61.42
49825;BME280;35714;55.708;37.478;2023-10-19T09:08:27;98484.44;;;9.18;61.43
49825;BME280;35714;55.708;37.478;2023-10-19T09:11:09;98479.03;;;9.18;61.74
49825;BME280;35714;55.708;37.478;2023-10-19T09:13:57;98486.41;;;9.23;61.69
49825;BME280;35714;55.708;37.478;2023-10-19T09:16:23;98489.81;;;9.35;61.84
49825;BME280;35714;55.708;37.478;2023-10-19T09:18:50;98486.13;;;9.42;61.87
49825;BME280;35714;55.708;37.478;2023-10-19T09:21:17;98491.59;;;9.47;61.32
49825;BME280;35714;55.708;37.478;2023-10-19T09:23:53;98492.41;;;9.47;61.69
49825;BME280;35714;55.708;37.478;2023-10-19T09:26:19;98484.84;;;9.49;60.77
49825;BME280;35714;55.708;37.478;2023-10-19T09:28:47;98491.59;;;9.47;61.12
49825;BME280;35714;55.708;37.478;2023-10-19T09:31:13;98485.19;;;9.53;61.22
49825;BME280;35714;55.708;37.478;2023-10-19T09:33:43;98484.22;;;9.64;61.06
49825;BME280;35714;55.708;37.478;2023-10-19T09:36:09;98487.03;;;9.74;60.83
49825;BME280;35714;55.708;37.478;2023-10-19T09:38:50;98491.44;;;9.81;60.52
49825;BME280;35714;55.708;37.478;2023-10-19T09:41:20;98488.31;;;9.89;60.48
49825;BME280;35714;55.708;37.478;2023-10-19T09:43:49;98486.25;;;10.01;60.58
49825;BME280;35714;55.708;37.478;2023-10-19T09:46:36;98489.13;;;10.17;60.68
49825;BME280;35714;55.708;37.478;2023-10-19T09:49:02;98480.34;;;10.32;60.40
49825;BME280;35714;55.708;37.478;2023-10-19T09:51:27;98482.34;;;10.36;60.26
49825;BME280;35714;55.708;37.478;2023-10-19T09:56:20;98484.59;;;10.50;59.77
49825;BME280;35714;55.708;37.478;2023-10-19T09:58:48;98484.06;;;10.47;59.21
49825;BME280;35714;55.708;37.478;2023-10-19T10:01:15;98486.22;;;10.45;59.28
49825;BME280;35714;55.708;37.478;2023-10-19T10:03:44;98489.53;;;10.58;59.71
49825;BME280;35714;55.708;37.478;2023-10-19T10:06:10;98486.97;;;10.73;59.92
49825;BME280;35714;55.708;37.478;2023-10-19T10:08:37;98489.56;;;10.95;59.70
49825;BME280;35714;55.708;37.478;2023-10-19T10:11:17;98487.84;;;11.22;59.59
49825;BME280;35714;55.708;37.478;2023-10-19T10:13:43;98497.00;;;11.58;59.16
49825;BME280;35714;55.708;37.478;2023-10-19T10:16:12;98492.06;;;12.03;58.49
49825;BME280;35714;55.708;37.478;2023-10-19T10:18:38;98493.75;;;12.55;58.89
49825;BME280;35714;55.708;37.478;2023-10-19T10:23:40;98490.44;;;13.46;55.05
49825;BME280;35714;55.708;37.478;2023-10-19T10:26:08;98496.88;;;13.70;54.67
49825;BME280;35714;55.708;37.478;2023-10-19T10:28:34;98487.09;;;13.64;52.80
49825;BME280;35714;55.708;37.478;2023-10-19T10:31:07;98486.63;;;13.31;52.81
49825;BME280;35714;55.708;37.478;2023-10-19T10:36:05;98484.53;;;12.72;53.56
49825;BME280;35714;55.708;37.478;2023-10-19T10:38:34;98481.25;;;12.54;53.97
49825;BME280;35714;55.708;37.478;2023-10-19T10:41:03;98483.97;;;12.39;54.16
49825;BME280;35714;55.708;37.478;2023-10-19T10:43:29;98487.19;;;12.20;54.71
49825;BME280;35714;55.708;37.478;2023-10-19T10:46:04;98493.66;;;11.94;54.26
49825;BME280;35714;55.708;37.478;2023-10-19T10:48:29;98485.09;;;11.69;54.30
49825;BME280;35714;55.708;37.478;2023-10-19T10:50:55;98498.88;;;11.52;55.09
49825;BME280;35714;55.708;37.478;2023-10-19T10:53:22;98498.25;;;11.35;54.85
49825;BME280;35714;55.708;37.478;2023-10-19T10:55:49;98500.50;;;11.06;54.65
49825;BME280;35714;55.708;37.478;2023-10-19T10:58:16;98501.38;;;10.74;55.78
49825;BME280;35714;55.708;37.478;2023-10-19T11:00:42;98499.50;;;10.47;56.45
49825;BME280;35714;55.708;37.478;2023-10-19T11:03:07;98497.63;;;10.25;56.66
49825;BME280;35714;55.708;37.478;2023-10-19T11:05:35;98500.38;;;10.03;57.16
49825;BME280;35714;55.708;37.478;2023-10-19T11:08:13;98498.00;;;9.85;57.67
49825;BME280;35714;55.708;37.478;2023-10-19T11:10:40;98500.28;;;9.71;57.85
49825;BME280;35714;55.708;37.478;2023-10-19T11:13:08;98500.91;;;9.56;58.08
49825;BME280;35714;55.708;37.478;2023-10-19T11:15:34;98507.50;;;9.43;58.49
49825;BME280;35714;55.708;37.478;2023-10-19T11:18:00;98504.09;;;9.31;58.81
49825;BME280;35714;55.708;37.478;2023-10-19T11:20:26;98507.38;;;9.16;59.01
49825;BME280;35714;55.708;37.478;2023-10-19T11:22:52;98502.16;;;8.92;59.44
49825;BME280;35714;55.708;37.478;2023-10-19T11:25:24;98510.38;;;8.80;60.02
49825;BME280;35714;55.708;37.478;2023-10-19T11:27:56;98512.50;;;8.78;60.50
49825;BME280;35714;55.708;37.478;2023-10-19T11:30:31;98511.84;;;8.71;60.58
49825;BME280;35714;55.708;37.478;2023-10-19T11:32:57;98505.47;;;8.60;61.04
49825;BME280;35714;55.708;37.478;2023-10-19T11:35:26;98515.75;;;8.46;61.24
49825;BME280;35714;55.708;37.478;2023-10-19T11:37:53;98504.25;;;8.39;61.76
49825;BME280;35714;55.708;37.478;2023-10-19T11:40:20;98508.69;;;8.45;62.36
49825;BME280;35714;55.708;37.478;2023-10-19T11:42:45;98499.72;;;8.57;62.78
49825;BME280;35714;55.708;37.478;2023-10-19T11:45:12;98501.78;;;8.66;62.79
49825;BME280;35714;55.708;37.478;2023-10-19T11:47:37;98499.22;;;8.77;62.62
49825;BME280;35714;55.708;37.478;2023-10-19T11:50:03;98499.56;;;8.80;62.34
49825;BME280;35714;55.708;37.478;2023-10-19T11:52:28;98501.53;;;8.85;62.41
49825;BME280;35714;55.708;37.478;2023-10-19T11:54:55;98502.97;;;8.93;62.32
49825;BME280;35714;55.708;37.478;2023-10-19T11:57:21;98501.84;;;9.06;62.60
49825;BME280;35714;55.708;37.478;2023-10-19T11:59:46;98501.50;;;9.19;62.22
49825;BME280;35714;55.708;37.478;2023-10-19T12:02:18;98495.41;;;9.29;62.08
49825;BME280;35714;55.708;37.478;2023-10-19T12:04:44;98502.41;;;9.47;62.39
49825;BME280;35714;55.708;37.478;2023-10-19T12:07:10;98505.13;;;9.69;62.42
49825;BME280;35714;55.708;37.478;2023-10-19T12:09:36;98496.44;;;9.89;62.48
49825;BME280;35714;55.708;37.478;2023-10-19T12:12:01;98494.47;;;10.06;62.43
49825;BME280;35714;55.708;37.478;2023-10-19T12:14:31;98493.50;;;10.18;61.96
49825;BME280;35714;55.708;37.478;2023-10-19T12:16:59;98503.84;;;10.26;61.90
49825;BME280;35714;55.708;37.478;2023-10-19T12:19:27;98495.22;;;10.29;61.68
49825;BME280;35714;55.708;37.478;2023-10-19T12:21:54;98502.03;;;10.32;61.57
49825;BME280;35714;55.708;37.478;2023-10-19T12:24:19;98504.53;;;10.33;61.50
49825;BME280;35714;55.708;37.478;2023-10-19T12:26:45;98508.25;;;10.32;61.57
49825;BME280;35714;55.708;37.478;2023-10-19T12:29:11;98505.81;;;10.30;61.43
49825;BME280;35714;55.708;37.478;2023-10-19T12:31:39;98498.94;;;10.23;61.12
49825;BME280;35714;55.708;37.478;2023-10-19T12:34:05;98507.00;;;10.13;61.04
49825;BME280;35714;55.708;37.478;2023-10-19T12:36:31;98501.50;;;10.07;61.19
49825;BME280;35714;55.708;37.478;2023-10-19T12:38:57;98508.25;;;10.05;61.29
49825;BME280;35714;55.708;37.478;2023-10-19T12:41:23;98506.63;;;10.04;61.31
49825;BME280;35714;55.708;37.478;2023-10-19T12:43:52;98510.38;;;10.03;61.33
49825;BME280;35714;55.708;37.478;2023-10-19T12:46:22;98511.72;;;10.00;61.36
49825;BME280;35714;55.708;37.478;2023-10-19T12:48:50;98511.13;;;9.98;61.50
49825;BME280;35714;55.708;37.478;2023-10-19T12:51:16;98505.72;;;9.98;61.57
49825;BME280;35714;55.708;37.478;2023-10-19T12:53:48;98507.63;;;9.98;61.73
49825;BME280;35714;55.708;37.478;2023-10-19T12:56:14;98512.22;;;9.97;61.79
49825;BME280;35714;55.708;37.478;2023-10-19T12:58:39;98510.03;;;9.94;61.89
49825;BME280;35714;55.708;37.478;2023-10-19T13:01:06;98513.25;;;9.91;61.94
49825;BME280;35714;55.708;37.478;2023-10-19T13:03:31;98508.34;;;9.88;62.12
49825;BME280;35714;55.708;37.478;2023-10-19T13:05:58;98502.78;;;9.78;62.12
49825;BME280;35714;55.708;37.478;2023-10-19T13:08:23;98512.81;;;9.77;62.09
49825;BME280;35714;55.708;37.478;2023-10-19T13:10:52;98507.34;;;9.72;62.37